Armada Township, Michigan
Current Conditions -  °F | °C
As of 4:58 AM on Friday 31 Oct 2014 (Local Time) from KMTC Reporting Station
Broken Clouds Broken Clouds  
Wind Chill: 42°   Ceiling: 3500
Heat Index: 45°   Visibility: 10mi
Dew Point: 38°   Wind: 6mph
Humidity: 76%   Direction: 220°SW
Pressure: 29.9"   Gusts: NA
Location:  42.8463°N, 82.9201°W
Report Text: KMTC 310858Z AUTO 22005KT 10SM BKN035 07/03 A2990 RMK AO2 DZB0823E0834 SLP131 P0000 60000 T00740034 57016
Loading
Personal Weather Stations






























Interactive Weather Map
Tropical Storm Tracking
New forecast layout! Learn more

10-Day Weather Forecast

Advertisements
Track Severe Weather on mobile